sensor_id;sensor_type;location;lat;lon;timestamp;P1;durP1;ratioP1;P2;durP2;ratioP2
61553;SDS011;47425;51.976;5.326;2022-07-23T08:05:12;3.35;;;1.63;;
61553;SDS011;47425;51.976;5.326;2022-07-23T08:07:38;5.85;;;1.50;;
61553;SDS011;47425;51.976;5.326;2022-07-23T08:10:05;2.78;;;1.80;;
61553;SDS011;47425;51.976;5.326;2022-07-23T08:12:55;3.03;;;1.83;;
61553;SDS011;47425;51.976;5.326;2022-07-23T08:15:26;6.95;;;2.00;;
61553;SDS011;47425;51.976;5.326;2022-07-23T08:17:52;3.70;;;1.80;;
61553;SDS011;47425;51.976;5.326;2022-07-23T08:20:18;4.82;;;2.00;;
61553;SDS011;47425;51.976;5.326;2022-07-23T08:22:50;4.32;;;1.70;;
61553;SDS011;47425;51.976;5.326;2022-07-23T08:25:25;2.63;;;1.63;;
61553;SDS011;47425;51.976;5.326;2022-07-23T08:27:53;5.95;;;1.70;;
61553;SDS011;47425;51.976;5.326;2022-07-23T08:30:19;3.63;;;1.70;;
61553;SDS011;47425;51.976;5.326;2022-07-23T08:35:39;3.95;;;1.80;;
61553;SDS011;47425;51.976;5.326;2022-07-23T08:38:07;1.77;;;1.50;;
61553;SDS011;47425;51.976;5.326;2022-07-23T08:40:35;5.25;;;1.80;;
61553;SDS011;47425;51.976;5.326;2022-07-23T08:43:07;2.42;;;1.60;;
61553;SDS011;47425;51.976;5.326;2022-07-23T08:45:40;2.40;;;1.48;;
61553;SDS011;47425;51.976;5.326;2022-07-23T08:48:28;3.67;;;1.83;;
61553;SDS011;47425;51.976;5.326;2022-07-23T08:50:58;2.22;;;1.38;;
61553;SDS011;47425;51.976;5.326;2022-07-23T08:53:25;7.50;;;2.17;;
61553;SDS011;47425;51.976;5.326;2022-07-23T08:55:54;5.07;;;1.60;;
61553;SDS011;47425;51.976;5.326;2022-07-23T08:58:22;2.50;;;1.50;;
61553;SDS011;47425;51.976;5.326;2022-07-23T09:00:48;3.60;;;1.50;;
61553;SDS011;47425;51.976;5.326;2022-07-23T09:05:45;3.85;;;1.20;;
61553;SDS011;47425;51.976;5.326;2022-07-23T09:08:12;2.80;;;1.20;;
61553;SDS011;47425;51.976;5.326;2022-07-23T09:13:27;3.53;;;1.20;;
61553;SDS011;47425;51.976;5.326;2022-07-23T09:16:26;1.58;;;0.98;;
61553;SDS011;47425;51.976;5.326;2022-07-23T09:19:00;2.38;;;1.15;;
61553;SDS011;47425;51.976;5.326;2022-07-23T09:21:29;2.72;;;1.33;;
61553;SDS011;47425;51.976;5.326;2022-07-23T09:26:37;5.22;;;1.23;;
61553;SDS011;47425;51.976;5.326;2022-07-23T09:29:27;5.30;;;1.27;;
61553;SDS011;47425;51.976;5.326;2022-07-23T09:31:54;1.63;;;0.95;;
61553;SDS011;47425;51.976;5.326;2022-07-23T09:36:49;1.88;;;1.00;;
61553;SDS011;47425;51.976;5.326;2022-07-23T09:39:29;2.75;;;1.30;;
61553;SDS011;47425;51.976;5.326;2022-07-23T09:41:56;4.20;;;0.93;;
61553;SDS011;47425;51.976;5.326;2022-07-23T09:44:23;1.95;;;1.00;;
61553;SDS011;47425;51.976;5.326;2022-07-23T09:46:49;2.45;;;1.00;;
61553;SDS011;47425;51.976;5.326;2022-07-23T09:49:20;1.95;;;0.90;;
61553;SDS011;47425;51.976;5.326;2022-07-23T09:51:52;1.83;;;1.00;;
61553;SDS011;47425;51.976;5.326;2022-07-23T09:54:29;2.33;;;0.90;;
61553;SDS011;47425;51.976;5.326;2022-07-23T09:57:00;1.65;;;1.00;;
61553;SDS011;47425;51.976;5.326;2022-07-23T09:59:29;1.52;;;0.98;;
61553;SDS011;47425;51.976;5.326;2022-07-23T10:01:57;1.70;;;0.98;;
61553;SDS011;47425;51.976;5.326;2022-07-23T10:04:24;1.85;;;0.90;;
61553;SDS011;47425;51.976;5.326;2022-07-23T10:07:09;1.20;;;0.73;;
61553;SDS011;47425;51.976;5.326;2022-07-23T10:09:56;2.47;;;1.05;;
61553;SDS011;47425;51.976;5.326;2022-07-23T10:12:53;1.90;;;0.90;;
61553;SDS011;47425;51.976;5.326;2022-07-23T10:15:25;1.23;;;0.80;;
61553;SDS011;47425;51.976;5.326;2022-07-23T10:17:50;1.48;;;0.82;;
61553;SDS011;47425;51.976;5.326;2022-07-23T10:20:17;1.83;;;1.00;;
61553;SDS011;47425;51.976;5.326;2022-07-23T10:26:05;1.15;;;0.88;;
61553;SDS011;47425;51.976;5.326;2022-07-23T10:28:46;0.93;;;0.90;;
61553;SDS011;47425;51.976;5.326;2022-07-23T10:34:27;1.77;;;0.80;;
61553;SDS011;47425;51.976;5.326;2022-07-23T10:37:17;2.35;;;0.70;;
61553;SDS011;47425;51.976;5.326;2022-07-23T10:40:11;0.50;;;0.50;;
61553;SDS011;47425;51.976;5.326;2022-07-23T10:42:41;2.10;;;0.82;;
61553;SDS011;47425;51.976;5.326;2022-07-23T10:45:22;2.53;;;0.65;;
61553;SDS011;47425;51.976;5.326;2022-07-23T10:47:51;0.88;;;0.70;;
61553;SDS011;47425;51.976;5.326;2022-07-23T10:58:04;2.28;;;0.93;;
61553;SDS011;47425;51.976;5.326;2022-07-23T11:00:32;2.10;;;0.90;;
61553;SDS011;47425;51.976;5.326;2022-07-23T11:02:59;2.03;;;0.68;;
61553;SDS011;47425;51.976;5.326;2022-07-23T11:05:43;1.33;;;0.60;;
61553;SDS011;47425;51.976;5.326;2022-07-23T11:08:15;0.98;;;0.63;;
61553;SDS011;47425;51.976;5.326;2022-07-23T11:10:47;1.92;;;0.85;;
61553;SDS011;47425;51.976;5.326;2022-07-23T11:31:56;5.80;;;1.77;;
61553;SDS011;47425;51.976;5.326;2022-07-23T11:34:36;1.27;;;1.17;;
61553;SDS011;47425;51.976;5.326;2022-07-23T11:37:07;1.27;;;0.90;;
61553;SDS011;47425;51.976;5.326;2022-07-23T11:39:34;1.85;;;1.33;;
61553;SDS011;47425;51.976;5.326;2022-07-23T11:42:01;3.80;;;1.65;;
61553;SDS011;47425;51.976;5.326;2022-07-23T11:44:33;2.95;;;1.15;;
61553;SDS011;47425;51.976;5.326;2022-07-23T11:49:26;3.40;;;1.40;;
61553;SDS011;47425;51.976;5.326;2022-07-23T11:52:12;2.30;;;1.42;;
61553;SDS011;47425;51.976;5.326;2022-07-23T11:54:47;1.73;;;1.40;;
61553;SDS011;47425;51.976;5.326;2022-07-23T11:57:25;4.28;;;1.80;;
61553;SDS011;47425;51.976;5.326;2022-07-23T11:59:54;2.40;;;1.58;;
61553;SDS011;47425;51.976;5.326;2022-07-23T12:02:23;2.35;;;1.30;;
61553;SDS011;47425;51.976;5.326;2022-07-23T12:04:50;2.70;;;1.50;;
61553;SDS011;47425;51.976;5.326;2022-07-23T12:10:39;3.13;;;1.38;;
61553;SDS011;47425;51.976;5.326;2022-07-23T12:12:53;2.10;;;1.35;;
61553;SDS011;47425;51.976;5.326;2022-07-23T12:15:23;4.00;;;1.85;;
61553;SDS011;47425;51.976;5.326;2022-07-23T12:17:56;4.45;;;1.60;;
61553;SDS011;47425;51.976;5.326;2022-07-23T12:20:24;4.15;;;1.70;;
61553;SDS011;47425;51.976;5.326;2022-07-23T12:22:52;3.97;;;1.52;;
61553;SDS011;47425;51.976;5.326;2022-07-23T12:25:23;2.65;;;1.50;;
61553;SDS011;47425;51.976;5.326;2022-07-23T12:28:06;3.03;;;1.23;;
61553;SDS011;47425;51.976;5.326;2022-07-23T12:30:39;2.05;;;1.40;;
61553;SDS011;47425;51.976;5.326;2022-07-23T12:33:11;2.60;;;1.23;;
61553;SDS011;47425;51.976;5.326;2022-07-23T12:35:40;2.58;;;1.38;;
61553;SDS011;47425;51.976;5.326;2022-07-23T12:38:10;2.05;;;1.45;;
61553;SDS011;47425;51.976;5.326;2022-07-23T12:40:41;2.85;;;1.45;;
61553;SDS011;47425;51.976;5.326;2022-07-23T12:43:30;2.50;;;1.60;;
61553;SDS011;47425;51.976;5.326;2022-07-23T12:46:05;3.85;;;1.88;;
61553;SDS011;47425;51.976;5.326;2022-07-23T12:48:38;3.15;;;1.60;;
61553;SDS011;47425;51.976;5.326;2022-07-23T12:51:14;2.05;;;1.48;;
61553;SDS011;47425;51.976;5.326;2022-07-23T12:53:50;3.28;;;1.63;;
61553;SDS011;47425;51.976;5.326;2022-07-23T12:56:20;1.30;;;1.20;;
61553;SDS011;47425;51.976;5.326;2022-07-23T12:58:55;1.20;;;1.10;;
61553;SDS011;47425;51.976;5.326;2022-07-23T13:01:28;3.78;;;1.50;;
61553;SDS011;47425;51.976;5.326;2022-07-23T13:04:06;2.92;;;1.48;;
61553;SDS011;47425;51.976;5.326;2022-07-23T13:06:40;1.83;;;1.40;;
61553;SDS011;47425;51.976;5.326;2022-07-23T13:09:07;1.73;;;1.48;;
61553;SDS011;47425;51.976;5.326;2022-07-23T13:11:34;1.67;;;1.30;;
61553;SDS011;47425;51.976;5.326;2022-07-23T13:14:01;2.03;;;1.40;;
61553;SDS011;47425;51.976;5.326;2022-07-23T13:16:28;3.42;;;1.63;;
61553;SDS011;47425;51.976;5.326;2022-07-23T13:18:54;4.97;;;1.60;;
61553;SDS011;47425;51.976;5.326;2022-07-23T13:21:21;1.50;;;1.40;;
61553;SDS011;47425;51.976;5.326;2022-07-23T13:23:48;2.53;;;1.75;;
61553;SDS011;47425;51.976;5.326;2022-07-23T13:26:13;2.40;;;1.70;;
61553;SDS011;47425;51.976;5.326;2022-07-23T13:28:39;6.07;;;1.65;;
61553;SDS011;47425;51.976;5.326;2022-07-23T13:31:06;1.92;;;1.52;;
61553;SDS011;47425;51.976;5.326;2022-07-23T13:33:31;2.05;;;1.40;;
61553;SDS011;47425;51.976;5.326;2022-07-23T13:35:56;1.83;;;1.58;;
61553;SDS011;47425;51.976;5.326;2022-07-23T13:38:22;3.20;;;1.63;;
61553;SDS011;47425;51.976;5.326;2022-07-23T13:40:50;2.13;;;1.67;;
61553;SDS011;47425;51.976;5.326;2022-07-23T13:43:17;1.70;;;1.60;;
61553;SDS011;47425;51.976;5.326;2022-07-23T13:45:44;2.28;;;1.50;;
61553;SDS011;47425;51.976;5.326;2022-07-23T13:48:12;1.75;;;1.52;;
61553;SDS011;47425;51.976;5.326;2022-07-23T13:50:39;1.80;;;1.33;;
61553;SDS011;47425;51.976;5.326;2022-07-23T13:53:06;4.15;;;1.67;;
61553;SDS011;47425;51.976;5.326;2022-07-23T13:55:34;2.45;;;1.50;;
61553;SDS011;47425;51.976;5.326;2022-07-23T13:58:01;2.45;;;1.70;;
61553;SDS011;47425;51.976;5.326;2022-07-23T14:00:27;3.05;;;1.73;;
61553;SDS011;47425;51.976;5.326;2022-07-23T14:02:55;2.10;;;1.70;;
61553;SDS011;47425;51.976;5.326;2022-07-23T14:05:21;2.17;;;1.45;;
61553;SDS011;47425;51.976;5.326;2022-07-23T14:07:47;2.17;;;1.60;;
61553;SDS011;47425;51.976;5.326;2022-07-23T14:10:15;3.00;;;1.67;;
61553;SDS011;47425;51.976;5.326;2022-07-23T14:12:41;1.60;;;1.50;;
61553;SDS011;47425;51.976;5.326;2022-07-23T14:15:08;1.80;;;1.30;;
61553;SDS011;47425;51.976;5.326;2022-07-23T14:17:35;2.03;;;1.73;;
61553;SDS011;47425;51.976;5.326;2022-07-23T14:22:29;1.50;;;1.33;;
61553;SDS011;47425;51.976;5.326;2022-07-23T14:24:54;3.30;;;1.70;;
61553;SDS011;47425;51.976;5.326;2022-07-23T14:29:48;5.45;;;1.80;;
61553;SDS011;47425;51.976;5.326;2022-07-23T14:32:14;3.55;;;1.60;;
61553;SDS011;47425;51.976;5.326;2022-07-23T14:34:40;3.65;;;1.60;;
61553;SDS011;47425;51.976;5.326;2022-07-23T14:37:06;6.32;;;1.80;;
61553;SDS011;47425;51.976;5.326;2022-07-23T14:39:32;2.80;;;1.65;;
61553;SDS011;47425;51.976;5.326;2022-07-23T14:41:57;6.38;;;2.40;;
61553;SDS011;47425;51.976;5.326;2022-07-23T14:44:23;7.43;;;2.10;;
61553;SDS011;47425;51.976;5.326;2022-07-23T14:46:48;4.43;;;1.90;;
61553;SDS011;47425;51.976;5.326;2022-07-23T14:49:15;11.18;;;2.10;;
61553;SDS011;47425;51.976;5.326;2022-07-23T14:51:40;5.25;;;1.75;;
61553;SDS011;47425;51.976;5.326;2022-07-23T14:54:07;2.78;;;2.10;;
61553;SDS011;47425;51.976;5.326;2022-07-23T14:56:34;5.13;;;2.08;;
61553;SDS011;47425;51.976;5.326;2022-07-23T14:59:01;2.83;;;1.90;;
61553;SDS011;47425;51.976;5.326;2022-07-23T15:01:28;3.70;;;1.80;;
61553;SDS011;47425;51.976;5.326;2022-07-23T15:03:53;10.40;;;1.77;;
61553;SDS011;47425;51.976;5.326;2022-07-23T15:06:20;1.77;;;1.55;;
61553;SDS011;47425;51.976;5.326;2022-07-23T15:08:45;5.03;;;1.92;;
61553;SDS011;47425;51.976;5.326;2022-07-23T15:11:10;3.65;;;2.05;;
61553;SDS011;47425;51.976;5.326;2022-07-23T15:13:37;4.05;;;1.83;;
61553;SDS011;47425;51.976;5.326;2022-07-23T15:16:03;5.93;;;1.88;;
61553;SDS011;47425;51.976;5.326;2022-07-23T15:18:30;3.17;;;1.60;;
61553;SDS011;47425;51.976;5.326;2022-07-23T15:20:55;3.22;;;1.52;;
61553;SDS011;47425;51.976;5.326;2022-07-23T15:23:23;2.08;;;1.58;;
61553;SDS011;47425;51.976;5.326;2022-07-23T15:25:48;1.85;;;1.48;;
61553;SDS011;47425;51.976;5.326;2022-07-23T15:28:13;2.15;;;1.42;;
61553;SDS011;47425;51.976;5.326;2022-07-23T15:30:39;2.53;;;1.40;;
61553;SDS011;47425;51.976;5.326;2022-07-23T15:33:06;2.17;;;1.45;;
61553;SDS011;47425;51.976;5.326;2022-07-23T15:35:31;2.03;;;1.50;;
61553;SDS011;47425;51.976;5.326;2022-07-23T15:37:57;3.00;;;1.48;;
61553;SDS011;47425;51.976;5.326;2022-07-23T15:40:24;2.75;;;1.70;;
61553;SDS011;47425;51.976;5.326;2022-07-23T15:42:50;4.25;;;1.70;;
61553;SDS011;47425;51.976;5.326;2022-07-23T15:45:15;3.70;;;1.75;;
61553;SDS011;47425;51.976;5.326;2022-07-23T15:47:41;2.75;;;1.60;;
61553;SDS011;47425;51.976;5.326;2022-07-23T15:50:08;2.67;;;1.70;;
61553;SDS011;47425;51.976;5.326;2022-07-23T15:52:35;2.67;;;1.60;;
61553;SDS011;47425;51.976;5.326;2022-07-23T15:55:01;3.10;;;1.40;;
61553;SDS011;47425;51.976;5.326;2022-07-23T15:57:28;1.90;;;1.45;;
61553;SDS011;47425;51.976;5.326;2022-07-23T15:59:54;2.78;;;1.80;;
61553;SDS011;47425;51.976;5.326;2022-07-23T16:02:21;2.60;;;1.58;;
61553;SDS011;47425;51.976;5.326;2022-07-23T16:04:47;1.85;;;1.60;;
61553;SDS011;47425;51.976;5.326;2022-07-23T16:07:14;2.28;;;1.60;;
61553;SDS011;47425;51.976;5.326;2022-07-23T16:09:39;3.03;;;1.77;;
61553;SDS011;47425;51.976;5.326;2022-07-23T16:12:05;1.85;;;1.40;;
61553;SDS011;47425;51.976;5.326;2022-07-23T16:14:30;3.67;;;1.60;;
61553;SDS011;47425;51.976;5.326;2022-07-23T16:16:57;2.03;;;1.50;;
61553;SDS011;47425;51.976;5.326;2022-07-23T16:19:22;1.88;;;1.55;;
61553;SDS011;47425;51.976;5.326;2022-07-23T16:21:48;4.05;;;2.45;;
61553;SDS011;47425;51.976;5.326;2022-07-23T16:24:14;13.60;;;7.18;;
61553;SDS011;47425;51.976;5.326;2022-07-23T16:26:39;6.82;;;3.80;;
61553;SDS011;47425;51.976;5.326;2022-07-23T16:29:05;12.15;;;3.45;;
61553;SDS011;47425;51.976;5.326;2022-07-23T16:31:31;5.65;;;3.03;;
61553;SDS011;47425;51.976;5.326;2022-07-23T16:33:57;7.40;;;3.40;;
61553;SDS011;47425;51.976;5.326;2022-07-23T16:36:22;5.80;;;3.42;;
61553;SDS011;47425;51.976;5.326;2022-07-23T16:38:48;4.40;;;3.17;;
61553;SDS011;47425;51.976;5.326;2022-07-23T16:41:14;3.92;;;2.83;;
61553;SDS011;47425;51.976;5.326;2022-07-23T16:43:40;3.38;;;2.70;;
61553;SDS011;47425;51.976;5.326;2022-07-23T16:46:05;7.35;;;3.10;;
61553;SDS011;47425;51.976;5.326;2022-07-23T16:48:33;8.07;;;2.92;;
61553;SDS011;47425;51.976;5.326;2022-07-23T16:50:58;3.20;;;2.55;;
61553;SDS011;47425;51.976;5.326;2022-07-23T16:53:24;4.32;;;2.50;;
61553;SDS011;47425;51.976;5.326;2022-07-23T16:55:49;3.40;;;2.60;;
61553;SDS011;47425;51.976;5.326;2022-07-23T16:58:16;4.70;;;2.30;;
61553;SDS011;47425;51.976;5.326;2022-07-23T17:00:41;6.00;;;2.22;;
61553;SDS011;47425;51.976;5.326;2022-07-23T17:03:07;3.78;;;1.98;;
61553;SDS011;47425;51.976;5.326;2022-07-23T17:05:32;4.30;;;1.88;;
61553;SDS011;47425;51.976;5.326;2022-07-23T17:08:00;3.60;;;1.73;;
61553;SDS011;47425;51.976;5.326;2022-07-23T17:10:28;3.05;;;1.75;;
61553;SDS011;47425;51.976;5.326;2022-07-23T17:12:54;9.63;;;2.03;;
61553;SDS011;47425;51.976;5.326;2022-07-23T17:15:20;4.25;;;1.90;;
61553;SDS011;47425;51.976;5.326;2022-07-23T17:17:46;3.20;;;2.00;;
61553;SDS011;47425;51.976;5.326;2022-07-23T17:20:15;3.38;;;1.90;;
61553;SDS011;47425;51.976;5.326;2022-07-23T17:22:41;1.95;;;1.85;;
61553;SDS011;47425;51.976;5.326;2022-07-23T17:25:09;3.00;;;2.17;;
61553;SDS011;47425;51.976;5.326;2022-07-23T17:27:39;3.97;;;2.00;;
61553;SDS011;47425;51.976;5.326;2022-07-23T17:30:05;3.03;;;1.95;;
61553;SDS011;47425;51.976;5.326;2022-07-23T17:32:52;5.40;;;2.08;;
61553;SDS011;47425;51.976;5.326;2022-07-23T17:35:18;7.15;;;2.00;;
61553;SDS011;47425;51.976;5.326;2022-07-23T17:37:43;3.28;;;1.60;;
61553;SDS011;47425;51.976;5.326;2022-07-23T17:40:09;3.28;;;2.08;;
61553;SDS011;47425;51.976;5.326;2022-07-23T17:42:36;3.28;;;1.77;;
61553;SDS011;47425;51.976;5.326;2022-07-23T17:45:02;2.35;;;1.50;;
61553;SDS011;47425;51.976;5.326;2022-07-23T17:47:29;2.95;;;2.03;;
61553;SDS011;47425;51.976;5.326;2022-07-23T17:49:55;2.92;;;2.25;;
61553;SDS011;47425;51.976;5.326;2022-07-23T17:52:21;1.90;;;1.70;;
61553;SDS011;47425;51.976;5.326;2022-07-23T17:54:47;3.13;;;2.13;;
61553;SDS011;47425;51.976;5.326;2022-07-23T17:57:12;2.08;;;1.73;;
61553;SDS011;47425;51.976;5.326;2022-07-23T17:59:39;3.35;;;2.20;;
61553;SDS011;47425;51.976;5.326;2022-07-23T18:02:04;4.70;;;1.90;;
61553;SDS011;47425;51.976;5.326;2022-07-23T18:04:30;3.47;;;1.90;;
61553;SDS011;47425;51.976;5.326;2022-07-23T18:06:55;2.70;;;2.00;;
61553;SDS011;47425;51.976;5.326;2022-07-23T18:09:22;3.42;;;2.13;;
61553;SDS011;47425;51.976;5.326;2022-07-23T18:11:47;7.13;;;2.20;;
61553;SDS011;47425;51.976;5.326;2022-07-23T18:14:12;4.18;;;2.58;;
61553;SDS011;47425;51.976;5.326;2022-07-23T18:16:39;4.13;;;2.10;;
61553;SDS011;47425;51.976;5.326;2022-07-23T18:19:05;3.80;;;2.38;;
61553;SDS011;47425;51.976;5.326;2022-07-23T18:21:31;4.82;;;2.33;;
61553;SDS011;47425;51.976;5.326;2022-07-23T18:23:57;3.78;;;2.70;;
61553;SDS011;47425;51.976;5.326;2022-07-23T18:26:23;2.70;;;1.90;;
61553;SDS011;47425;51.976;5.326;2022-07-23T18:28:49;3.13;;;2.00;;
61553;SDS011;47425;51.976;5.326;2022-07-23T18:31:14;3.45;;;2.08;;
61553;SDS011;47425;51.976;5.326;2022-07-23T18:33:41;2.65;;;2.30;;
61553;SDS011;47425;51.976;5.326;2022-07-23T18:36:07;3.97;;;2.00;;
61553;SDS011;47425;51.976;5.326;2022-07-23T18:38:33;2.00;;;1.90;;
61553;SDS011;47425;51.976;5.326;2022-07-23T18:40:58;3.00;;;1.88;;
61553;SDS011;47425;51.976;5.326;2022-07-23T18:43:25;2.53;;;2.13;;
61553;SDS011;47425;51.976;5.326;2022-07-23T18:45:51;2.15;;;2.00;;
61553;SDS011;47425;51.976;5.326;2022-07-23T18:48:16;2.88;;;1.90;;
61553;SDS011;47425;51.976;5.326;2022-07-23T18:50:44;2.55;;;2.00;;
61553;SDS011;47425;51.976;5.326;2022-07-23T18:53:10;2.22;;;1.85;;
61553;SDS011;47425;51.976;5.326;2022-07-23T18:55:37;3.20;;;2.03;;
61553;SDS011;47425;51.976;5.326;2022-07-23T18:58:04;3.10;;;2.00;;
61553;SDS011;47425;51.976;5.326;2022-07-23T19:00:49;2.75;;;1.77;;
61553;SDS011;47425;51.976;5.326;2022-07-23T19:03:15;3.25;;;1.63;;
61553;SDS011;47425;51.976;5.326;2022-07-23T19:05:40;3.65;;;1.90;;
61553;SDS011;47425;51.976;5.326;2022-07-23T19:08:06;2.42;;;2.03;;
61553;SDS011;47425;51.976;5.326;2022-07-23T19:10:34;5.40;;;2.25;;
61553;SDS011;47425;51.976;5.326;2022-07-23T19:13:00;4.15;;;2.05;;
61553;SDS011;47425;51.976;5.326;2022-07-23T19:15:25;3.90;;;2.22;;
61553;SDS011;47425;51.976;5.326;2022-07-23T19:17:51;5.03;;;2.13;;
61553;SDS011;47425;51.976;5.326;2022-07-23T19:20:17;3.17;;;2.20;;
61553;SDS011;47425;51.976;5.326;2022-07-23T19:22:43;2.47;;;1.90;;
61553;SDS011;47425;51.976;5.326;2022-07-23T19:25:08;5.72;;;2.70;;
61553;SDS011;47425;51.976;5.326;2022-07-23T19:27:35;4.10;;;2.00;;
61553;SDS011;47425;51.976;5.326;2022-07-23T19:30:02;4.72;;;2.20;;
61553;SDS011;47425;51.976;5.326;2022-07-23T19:32:30;5.55;;;2.35;;
61553;SDS011;47425;51.976;5.326;2022-07-23T19:34:55;4.00;;;2.05;;
61553;SDS011;47425;51.976;5.326;2022-07-23T19:37:22;2.40;;;2.00;;
61553;SDS011;47425;51.976;5.326;2022-07-23T19:39:49;2.95;;;2.10;;
61553;SDS011;47425;51.976;5.326;2022-07-23T19:42:15;2.67;;;1.63;;
61553;SDS011;47425;51.976;5.326;2022-07-23T19:44:42;5.13;;;2.17;;
61553;SDS011;47425;51.976;5.326;2022-07-23T19:47:07;3.17;;;1.80;;
61553;SDS011;47425;51.976;5.326;2022-07-23T19:49:33;2.42;;;1.98;;
61553;SDS011;47425;51.976;5.326;2022-07-23T19:51:59;2.63;;;1.85;;
61553;SDS011;47425;51.976;5.326;2022-07-23T19:54:26;2.25;;;1.65;;
61553;SDS011;47425;51.976;5.326;2022-07-23T19:56:51;1.83;;;1.73;;
61553;SDS011;47425;51.976;5.326;2022-07-23T19:59:18;4.88;;;2.22;;
61553;SDS011;47425;51.976;5.326;2022-07-23T20:01:44;2.78;;;1.95;;
61553;SDS011;47425;51.976;5.326;2022-07-23T20:04:11;6.30;;;2.00;;
61553;SDS011;47425;51.976;5.326;2022-07-23T20:06:37;4.03;;;1.90;;
61553;SDS011;47425;51.976;5.326;2022-07-23T20:09:03;1.80;;;1.70;;
61553;SDS011;47425;51.976;5.326;2022-07-23T20:11:30;5.15;;;1.77;;
61553;SDS011;47425;51.976;5.326;2022-07-23T20:13:57;2.88;;;1.60;;
61553;SDS011;47425;51.976;5.326;2022-07-23T20:16:23;7.88;;;2.00;;
61553;SDS011;47425;51.976;5.326;2022-07-23T20:18:48;4.47;;;1.90;;
61553;SDS011;47425;51.976;5.326;2022-07-23T20:21:15;2.40;;;1.80;;
61553;SDS011;47425;51.976;5.326;2022-07-23T20:23:42;2.63;;;1.60;;
61553;SDS011;47425;51.976;5.326;2022-07-23T20:26:07;2.13;;;1.90;;
61553;SDS011;47425;51.976;5.326;2022-07-23T20:28:34;2.85;;;1.73;;
61553;SDS011;47425;51.976;5.326;2022-07-23T20:30:59;2.70;;;1.50;;
61553;SDS011;47425;51.976;5.326;2022-07-23T20:33:29;3.83;;;2.00;;
61553;SDS011;47425;51.976;5.326;2022-07-23T20:35:55;2.35;;;1.90;;
61553;SDS011;47425;51.976;5.326;2022-07-23T20:38:21;2.75;;;1.77;;
61553;SDS011;47425;51.976;5.326;2022-07-23T20:40:46;2.00;;;1.80;;
61553;SDS011;47425;51.976;5.326;2022-07-23T20:43:12;4.57;;;1.90;;
61553;SDS011;47425;51.976;5.326;2022-07-23T20:45:38;3.33;;;2.08;;
61553;SDS011;47425;51.976;5.326;2022-07-23T20:48:03;2.63;;;1.70;;
61553;SDS011;47425;51.976;5.326;2022-07-23T20:50:30;2.45;;;1.85;;
61553;SDS011;47425;51.976;5.326;2022-07-23T20:52:55;1.80;;;1.70;;
61553;SDS011;47425;51.976;5.326;2022-07-23T20:55:41;2.63;;;1.75;;
61553;SDS011;47425;51.976;5.326;2022-07-23T20:58:07;1.98;;;1.60;;
61553;SDS011;47425;51.976;5.326;2022-07-23T21:00:33;3.40;;;1.60;;
61553;SDS011;47425;51.976;5.326;2022-07-23T21:02:59;1.95;;;1.83;;
61553;SDS011;47425;51.976;5.326;2022-07-23T21:05:25;1.90;;;1.80;;
61553;SDS011;47425;51.976;5.326;2022-07-23T21:07:50;2.40;;;1.80;;
61553;SDS011;47425;51.976;5.326;2022-07-23T21:10:16;2.20;;;1.70;;
61553;SDS011;47425;51.976;5.326;2022-07-23T21:12:43;3.50;;;1.88;;
61553;SDS011;47425;51.976;5.326;2022-07-23T21:15:09;1.52;;;1.42;;
61553;SDS011;47425;51.976;5.326;2022-07-23T21:17:35;1.88;;;1.77;;
61553;SDS011;47425;51.976;5.326;2022-07-23T21:20:00;3.70;;;1.70;;
61553;SDS011;47425;51.976;5.326;2022-07-23T21:22:27;2.53;;;1.90;;
61553;SDS011;47425;51.976;5.326;2022-07-23T21:24:52;2.20;;;1.90;;
61553;SDS011;47425;51.976;5.326;2022-07-23T21:27:18;4.57;;;1.92;;
61553;SDS011;47425;51.976;5.326;2022-07-23T21:29:44;2.38;;;1.80;;
61553;SDS011;47425;51.976;5.326;2022-07-23T21:32:10;1.98;;;1.88;;
61553;SDS011;47425;51.976;5.326;2022-07-23T21:34:35;4.28;;;1.63;;
61553;SDS011;47425;51.976;5.326;2022-07-23T21:37:01;2.33;;;1.80;;
61553;SDS011;47425;51.976;5.326;2022-07-23T21:39:27;4.05;;;1.80;;
61553;SDS011;47425;51.976;5.326;2022-07-23T21:41:53;2.55;;;1.58;;
61553;SDS011;47425;51.976;5.326;2022-07-23T21:44:18;3.35;;;1.80;;
61553;SDS011;47425;51.976;5.326;2022-07-23T21:46:45;3.38;;;1.80;;
61553;SDS011;47425;51.976;5.326;2022-07-23T21:49:10;2.10;;;1.77;;
61553;SDS011;47425;51.976;5.326;2022-07-23T21:51:36;1.80;;;1.70;;
61553;SDS011;47425;51.976;5.326;2022-07-23T21:54:01;1.90;;;1.80;;
61553;SDS011;47425;51.976;5.326;2022-07-23T21:56:28;2.20;;;1.90;;
61553;SDS011;47425;51.976;5.326;2022-07-23T21:58:53;3.42;;;1.60;;
61553;SDS011;47425;51.976;5.326;2022-07-23T22:01:19;1.60;;;1.50;;
61553;SDS011;47425;51.976;5.326;2022-07-23T22:03:46;2.05;;;1.95;;
61553;SDS011;47425;51.976;5.326;2022-07-23T22:06:11;1.92;;;1.83;;
61553;SDS011;47425;51.976;5.326;2022-07-23T22:08:36;2.17;;;1.98;;
61553;SDS011;47425;51.976;5.326;2022-07-23T22:11:02;1.80;;;1.70;;
61553;SDS011;47425;51.976;5.326;2022-07-23T22:13:28;1.67;;;1.58;;
61553;SDS011;47425;51.976;5.326;2022-07-23T22:15:54;3.72;;;1.70;;
61553;SDS011;47425;51.976;5.326;2022-07-23T22:18:19;1.85;;;1.70;;
61553;SDS011;47425;51.976;5.326;2022-07-23T22:20:46;2.00;;;1.80;;
61553;SDS011;47425;51.976;5.326;2022-07-23T22:23:11;2.20;;;2.10;;
61553;SDS011;47425;51.976;5.326;2022-07-23T22:25:37;2.42;;;1.95;;
61553;SDS011;47425;51.976;5.326;2022-07-23T22:28:02;2.10;;;1.90;;
